createdAt,value
2018-11-11T00:01:07.438Z,45.13
2018-11-11T00:03:35.652Z,50.03
2018-11-11T00:06:03.870Z,45.63
2018-11-11T00:08:32.092Z,43.13
2018-11-11T00:11:00.328Z,52.17
2018-11-11T00:13:28.554Z,44.37
2018-11-11T00:15:56.798Z,46.37
2018-11-11T00:18:25.001Z,50.83
2018-11-11T00:20:53.214Z,48.10
2018-11-11T00:23:21.419Z,50.93
2018-11-11T00:25:49.627Z,45.77
2018-11-11T00:28:17.833Z,45.63
2018-11-11T00:30:46.052Z,56.20
2018-11-11T00:33:14.246Z,56.97
2018-11-11T00:35:42.459Z,54.03
2018-11-11T00:38:10.663Z,57.67
2018-11-11T00:40:38.909Z,57.30
2018-11-11T00:43:07.168Z,53.27
2018-11-11T00:45:35.395Z,49.40
2018-11-11T00:48:03.611Z,44.77
2018-11-11T00:50:31.819Z,42.63
2018-11-11T00:53:00.060Z,47.90
2018-11-11T00:55:31.234Z,46.53
2018-11-11T00:57:59.496Z,49.33
2018-11-11T01:00:27.699Z,49.17
2018-11-11T01:02:55.915Z,52.70
2018-11-11T01:05:24.195Z,64.73
2018-11-11T01:07:52.402Z,63.33
2018-11-11T01:10:20.697Z,64.53
2018-11-11T01:12:48.887Z,57.80
2018-11-11T01:15:17.630Z,60.90
2018-11-11T01:17:45.826Z,59.00
2018-11-11T01:20:15.296Z,58.27
2018-11-11T01:22:43.950Z,62.83
2018-11-11T01:25:14.291Z,64.17
2018-11-11T01:27:42.543Z,58.60
2018-11-11T01:30:10.759Z,62.33
2018-11-11T01:32:39.158Z,51.00
2018-11-11T01:35:09.206Z,54.27
2018-11-11T01:37:37.471Z,62.37
2018-11-11T01:40:06.183Z,55.90
2018-11-11T01:42:34.431Z,66.57
2018-11-11T01:45:02.622Z,67.60
2018-11-11T01:47:30.856Z,60.27
2018-11-11T01:49:59.055Z,60.27
2018-11-11T01:52:27.380Z,63.73
2018-11-11T01:54:55.610Z,59.73
2018-11-11T01:57:23.847Z,62.33
2018-11-11T01:59:52.048Z,54.03
2018-11-11T02:02:20.276Z,51.90
2018-11-11T02:04:48.479Z,57.93
2018-11-11T02:07:16.728Z,55.90
2018-11-11T02:09:45.009Z,59.13
2018-11-11T02:12:13.174Z,61.07
2018-11-11T02:14:41.362Z,56.97
2018-11-11T02:17:09.579Z,62.20
2018-11-11T02:19:37.787Z,51.67
2018-11-11T02:22:06.054Z,51.97
2018-11-11T02:24:34.247Z,54.67
2018-11-11T02:27:02.447Z,53.70
2018-11-11T02:29:30.668Z,48.90
2018-11-11T02:31:58.931Z,55.27
2018-11-11T02:34:27.153Z,47.00
2018-11-11T02:36:55.407Z,58.10
2018-11-11T02:39:23.600Z,59.13
2018-11-11T02:41:51.832Z,66.00
2018-11-11T02:44:20.035Z,51.40
2018-11-11T02:46:48.292Z,57.13
2018-11-11T02:49:16.537Z,53.13
2018-11-11T02:51:44.795Z,59.60
2018-11-11T02:54:13.030Z,60.33
2018-11-11T02:56:41.280Z,56.23
2018-11-11T02:59:09.509Z,56.20
2018-11-11T03:01:37.744Z,56.70
2018-11-11T03:04:06.031Z,61.80
2018-11-11T03:06:34.226Z,60.43
2018-11-11T03:09:02.438Z,54.83
2018-11-11T03:11:30.659Z,50.63
2018-11-11T03:13:58.853Z,54.27
2018-11-11T03:16:27.120Z,56.57
2018-11-11T03:18:55.352Z,59.67
2018-11-11T03:21:23.551Z,54.30
2018-11-11T03:23:51.756Z,53.00
2018-11-11T03:26:19.962Z,53.97
2018-11-11T03:28:48.172Z,57.10
2018-11-11T03:31:16.432Z,51.30
2018-11-11T03:33:44.641Z,53.50
2018-11-11T03:36:12.845Z,59.83
2018-11-11T03:38:41.117Z,62.50
2018-11-11T03:41:09.372Z,56.50
2018-11-11T03:43:37.616Z,53.70
2018-11-11T03:46:05.827Z,58.63
2018-11-11T03:48:34.039Z,55.13
2018-11-11T03:51:02.297Z,61.50
2018-11-11T03:53:30.535Z,56.73
2018-11-11T03:55:58.748Z,56.27
2018-11-11T03:58:27.025Z,61.87
2018-11-11T04:00:55.278Z,54.40
2018-11-11T04:03:23.507Z,54.90
2018-11-11T04:05:51.753Z,66.10
2018-11-11T04:08:19.985Z,64.63
2018-11-11T04:10:48.193Z,63.17
2018-11-11T04:13:16.435Z,61.67
2018-11-11T04:15:45.259Z,63.30
2018-11-11T04:18:13.541Z,70.87
2018-11-11T04:20:41.840Z,74.23
2018-11-11T04:23:10.060Z,72.23
2018-11-11T04:25:38.311Z,63.73
2018-11-11T04:28:06.547Z,62.73
2018-11-11T04:30:34.769Z,65.37
2018-11-11T04:33:02.983Z,68.70
2018-11-11T04:35:31.194Z,64.53
2018-11-11T04:37:59.413Z,67.17
2018-11-11T04:40:27.671Z,63.73
2018-11-11T04:42:55.925Z,65.87
2018-11-11T04:45:24.140Z,65.07
2018-11-11T04:47:52.359Z,58.13
2018-11-11T04:50:20.564Z,57.80
2018-11-11T04:52:48.796Z,59.83
2018-11-11T04:55:16.991Z,62.93
2018-11-11T04:57:45.215Z,60.33
2018-11-11T05:00:14.376Z,65.70
2018-11-11T05:02:42.890Z,62.20
2018-11-11T05:05:12.084Z,62.20
2018-11-11T05:07:40.633Z,60.40
2018-11-11T05:10:08.973Z,55.53
2018-11-11T05:12:37.356Z,54.43
2018-11-11T05:15:06.779Z,60.60
2018-11-11T05:17:34.974Z,61.50
2018-11-11T05:20:03.179Z,62.67
2018-11-11T05:22:31.389Z,64.97
2018-11-11T05:24:59.637Z,61.73
2018-11-11T05:27:27.839Z,60.70
2018-11-11T05:29:56.136Z,61.07
2018-11-11T05:32:24.344Z,54.13
2018-11-11T05:34:52.594Z,60.40
2018-11-11T05:37:20.801Z,61.20
2018-11-11T05:39:49.023Z,58.87
2018-11-11T05:42:17.247Z,55.30
2018-11-11T05:44:45.469Z,56.07
2018-11-11T05:47:13.718Z,56.13
2018-11-11T05:49:42.353Z,55.90
2018-11-11T05:52:10.581Z,56.70
2018-11-11T05:54:38.797Z,56.40
2018-11-11T05:57:06.991Z,60.20
2018-11-11T05:59:35.217Z,57.83
2018-11-11T06:02:03.448Z,51.67
2018-11-11T06:04:31.682Z,50.47
2018-11-11T06:06:59.897Z,54.00
2018-11-11T06:09:28.169Z,53.53
2018-11-11T06:11:56.372Z,49.37
2018-11-11T06:14:24.587Z,52.30
2018-11-11T06:16:52.779Z,52.07
2018-11-11T06:19:21.032Z,53.50
2018-11-11T06:21:49.239Z,56.10
2018-11-11T06:24:17.491Z,53.43
2018-11-11T06:26:45.699Z,57.63
2018-11-11T06:29:13.891Z,56.80
2018-11-11T06:31:42.123Z,51.40
2018-11-11T06:34:10.390Z,54.80
2018-11-11T06:36:38.594Z,50.77
2018-11-11T06:39:08.348Z,58.20
2018-11-11T06:41:36.579Z,54.07
2018-11-11T06:44:04.791Z,46.70
2018-11-11T06:46:33.019Z,48.90
2018-11-11T06:49:01.214Z,46.47
2018-11-11T06:51:29.439Z,56.53
2018-11-11T06:53:57.752Z,62.43
2018-11-11T06:56:26.057Z,57.17
2018-11-11T06:58:54.277Z,60.40
2018-11-11T07:01:22.550Z,54.53
2018-11-11T07:03:56.194Z,56.00
2018-11-11T07:06:24.779Z,51.07
2018-11-11T07:08:52.988Z,56.73
2018-11-11T07:11:21.220Z,53.97
2018-11-11T07:13:49.564Z,52.60
2018-11-11T07:16:17.784Z,53.87
2018-11-11T07:18:46.723Z,54.93
2018-11-11T07:21:15.361Z,53.70
2018-11-11T07:23:43.799Z,58.27
2018-11-11T07:26:11.927Z,55.70
2018-11-11T07:28:40.145Z,54.30
2018-11-11T07:31:08.836Z,55.50
2018-11-11T07:33:37.084Z,51.50
2018-11-11T07:36:06.160Z,53.00
2018-11-11T07:38:34.387Z,50.77
2018-11-11T07:41:02.616Z,54.90
2018-11-11T07:43:30.829Z,52.97
2018-11-11T07:45:59.048Z,52.87
2018-11-11T07:48:27.255Z,53.47
2018-11-11T07:50:55.512Z,48.63
2018-11-11T07:53:23.715Z,47.93
2018-11-11T07:55:51.987Z,47.27
2018-11-11T07:58:20.246Z,47.00
2018-11-11T08:00:48.539Z,50.50
2018-11-11T08:03:16.789Z,47.10
2018-11-11T08:05:45.029Z,49.27
2018-11-11T08:08:13.245Z,48.90
2018-11-11T08:10:52.858Z,46.17
2018-11-11T08:13:21.056Z,45.90
2018-11-11T08:15:49.284Z,48.90
2018-11-11T08:18:17.499Z,46.47
2018-11-11T08:20:45.724Z,48.50
2018-11-11T08:23:13.925Z,46.60
2018-11-11T08:25:42.166Z,43.10
2018-11-11T08:28:10.362Z,47.30
2018-11-11T08:30:38.564Z,45.47
2018-11-11T08:33:07.025Z,47.13
2018-11-11T08:35:35.251Z,47.60
2018-11-11T08:38:03.569Z,57.50
2018-11-11T08:40:31.908Z,48.33
2018-11-11T08:43:00.079Z,46.00
2018-11-11T08:45:28.287Z,45.00
2018-11-11T08:47:56.517Z,45.77
2018-11-11T08:50:24.784Z,44.10
2018-11-11T08:52:53.005Z,41.97
2018-11-11T08:55:21.203Z,42.97
2018-11-11T08:57:49.456Z,43.90
2018-11-11T09:00:17.673Z,45.50
2018-11-11T09:02:45.979Z,145.53
2018-11-11T09:05:14.219Z,51.37
2018-11-11T09:07:42.468Z,45.93
2018-11-11T09:10:11.888Z,44.80
2018-11-11T09:12:40.129Z,47.67
2018-11-11T09:15:10.743Z,44.00
2018-11-11T09:17:39.333Z,44.80
2018-11-11T09:20:07.736Z,47.30
2018-11-11T09:22:36.091Z,46.03
2018-11-11T09:25:04.699Z,49.93
2018-11-11T09:27:32.997Z,45.37
2018-11-11T09:30:01.202Z,45.50
2018-11-11T09:32:29.539Z,48.53
2018-11-11T09:34:57.803Z,46.77
2018-11-11T09:37:26.128Z,46.40
2018-11-11T09:39:54.346Z,49.70
2018-11-11T09:42:22.653Z,46.93
2018-11-11T09:44:50.839Z,52.67
2018-11-11T09:47:19.057Z,45.63
2018-11-11T09:49:47.289Z,46.67
2018-11-11T09:52:15.517Z,47.67
2018-11-11T09:54:43.744Z,47.67
2018-11-11T09:57:11.969Z,42.57
2018-11-11T09:59:40.208Z,45.00
2018-11-11T10:02:08.440Z,47.20
2018-11-11T10:04:54.646Z,52.40
2018-11-11T10:07:33.624Z,43.20
2018-11-11T10:10:05.497Z,43.57
2018-11-11T10:12:41.020Z,44.63
2018-11-11T10:15:13.880Z,43.33
2018-11-11T10:17:49.375Z,44.23
2018-11-11T10:20:23.155Z,40.73
2018-11-11T10:22:59.395Z,39.70
2018-11-11T10:25:31.943Z,34.47
2018-11-11T10:28:15.379Z,47.60
2018-11-11T10:31:17.892Z,40.20
2018-11-11T10:33:51.094Z,38.17
2018-11-11T10:36:24.748Z,39.87
2018-11-11T10:38:56.960Z,35.73
2018-11-11T10:41:29.463Z,37.43
2018-11-11T10:44:00.791Z,35.60
2018-11-11T10:46:32.904Z,39.03
2018-11-11T10:49:03.421Z,38.70
2018-11-11T10:51:31.733Z,37.47
2018-11-11T10:53:59.988Z,36.57
2018-11-11T10:56:29.068Z,37.60
2018-11-11T10:58:57.310Z,36.73
2018-11-11T11:01:30.967Z,36.47
2018-11-11T11:03:59.203Z,32.00
2018-11-11T11:06:32.914Z,31.60
2018-11-11T11:09:06.657Z,32.03
2018-11-11T11:11:34.872Z,34.30
2018-11-11T11:14:03.193Z,34.00
2018-11-11T11:16:31.379Z,30.53
2018-11-11T11:18:59.614Z,29.17
2018-11-11T11:21:27.811Z,32.33
2018-11-11T11:23:56.096Z,31.97
2018-11-11T11:26:24.315Z,29.80
2018-11-11T11:28:52.523Z,30.37
2018-11-11T11:31:20.772Z,29.83
2018-11-11T11:33:48.995Z,29.57
2018-11-11T11:36:17.283Z,31.13
2018-11-11T11:38:45.521Z,29.90
2018-11-11T11:41:13.753Z,29.13
2018-11-11T11:43:42.003Z,28.60
2018-11-11T11:46:10.223Z,27.77
2018-11-11T11:48:38.466Z,29.30
2018-11-11T11:51:06.687Z,28.73
2018-11-11T11:53:34.942Z,29.47
2018-11-11T11:56:03.179Z,31.53
2018-11-11T11:58:31.956Z,29.07
2018-11-11T12:01:00.964Z,27.10
2018-11-11T12:03:29.175Z,25.90
2018-11-11T12:05:57.396Z,28.80
2018-11-11T12:08:25.703Z,29.80
2018-11-11T12:10:53.946Z,32.70
2018-11-11T12:13:22.183Z,30.60
2018-11-11T12:15:50.416Z,27.83
2018-11-11T12:18:18.705Z,26.43
2018-11-11T12:20:46.931Z,29.70
2018-11-11T12:23:15.192Z,30.90
2018-11-11T12:25:44.412Z,31.30
2018-11-11T12:28:12.621Z,28.63
2018-11-11T12:30:40.884Z,26.83
2018-11-11T12:33:09.167Z,27.70
2018-11-11T12:35:37.360Z,29.30
2018-11-11T12:38:05.665Z,30.17
2018-11-11T12:40:33.887Z,28.53
2018-11-11T12:43:02.150Z,25.90
2018-11-11T12:45:30.967Z,27.80
2018-11-11T12:47:59.191Z,28.33
2018-11-11T12:50:27.515Z,26.63
2018-11-11T12:52:55.678Z,28.97
2018-11-11T12:55:23.959Z,29.43
2018-11-11T12:57:52.116Z,25.17
2018-11-11T13:00:20.331Z,23.73
2018-11-11T13:02:48.548Z,21.83
2018-11-11T13:05:16.781Z,21.50
2018-11-11T13:07:44.988Z,21.80
2018-11-11T13:10:13.915Z,22.17
2018-11-11T13:12:42.513Z,21.83
2018-11-11T13:15:12.003Z,20.60
2018-11-11T13:17:40.690Z,20.13
2018-11-11T13:20:11.128Z,20.00
2018-11-11T13:22:39.409Z,19.87
2018-11-11T13:25:08.395Z,19.20
2018-11-11T13:27:36.871Z,21.47
2018-11-11T13:30:06.036Z,19.13
2018-11-11T13:32:34.291Z,19.60
2018-11-11T13:35:02.502Z,19.67
2018-11-11T13:37:30.875Z,18.73
2018-11-11T13:39:59.087Z,18.17
2018-11-11T13:42:27.455Z,15.53
2018-11-11T13:44:55.773Z,15.90
2018-11-11T13:47:24.008Z,15.00
2018-11-11T13:49:52.231Z,16.83
2018-11-11T13:52:20.500Z,16.33
2018-11-11T13:54:48.703Z,14.57
2018-11-11T13:57:16.927Z,15.47
2018-11-11T13:59:45.443Z,15.50
2018-11-11T14:02:13.659Z,15.90
2018-11-11T14:04:41.879Z,16.07
2018-11-11T14:07:10.104Z,13.90
2018-11-11T14:09:38.320Z,12.63
2018-11-11T14:12:06.599Z,13.87
2018-11-11T14:14:34.799Z,12.53
2018-11-11T14:17:03.016Z,11.70
2018-11-11T14:19:31.344Z,10.97
2018-11-11T14:21:59.540Z,13.63
2018-11-11T14:24:27.743Z,15.47
2018-11-11T14:26:56.060Z,15.33
2018-11-11T14:29:24.248Z,12.77
2018-11-11T14:31:52.486Z,14.47
2018-11-11T14:34:20.689Z,13.10
2018-11-11T14:36:48.914Z,14.37
2018-11-11T14:39:17.124Z,15.40
2018-11-11T14:41:45.359Z,14.20
2018-11-11T14:44:13.612Z,14.17
2018-11-11T14:46:42.079Z,13.17
2018-11-11T14:49:10.659Z,14.17
2018-11-11T14:51:38.873Z,14.03
2018-11-11T14:54:07.079Z,14.70
2018-11-11T14:56:35.364Z,13.97
2018-11-11T14:59:03.569Z,14.40
2018-11-11T15:01:31.853Z,13.87
2018-11-11T15:04:00.120Z,14.60
2018-11-11T15:06:28.621Z,16.33
2018-11-11T15:08:56.830Z,15.13
2018-11-11T15:11:25.076Z,15.90
2018-11-11T15:13:53.362Z,15.70
2018-11-11T15:16:21.547Z,12.67
2018-11-11T15:18:49.809Z,16.50
2018-11-11T15:21:18.049Z,15.10
2018-11-11T15:23:46.271Z,15.60
2018-11-11T15:26:14.495Z,15.33
2018-11-11T15:28:42.728Z,20.23
2018-11-11T15:31:11.195Z,16.43
2018-11-11T15:33:39.203Z,16.63
2018-11-11T15:36:07.424Z,25.43
2018-11-11T15:38:35.639Z,15.97
2018-11-11T15:41:03.884Z,18.53
2018-11-11T15:43:32.140Z,17.77
2018-11-11T15:46:00.344Z,17.83
2018-11-11T15:48:28.592Z,15.50
2018-11-11T15:50:56.820Z,16.00
2018-11-11T15:53:25.240Z,16.30
2018-11-11T15:55:53.447Z,17.30
2018-11-11T15:58:21.723Z,18.67
2018-11-11T16:00:49.971Z,28.30
2018-11-11T16:03:18.195Z,16.87
2018-11-11T16:05:46.412Z,16.37
2018-11-11T16:08:14.638Z,15.63
2018-11-11T16:10:42.899Z,17.47
2018-11-11T16:13:11.115Z,15.40
2018-11-11T16:15:40.478Z,15.97
2018-11-11T16:18:10.195Z,17.27
2018-11-11T16:20:38.546Z,16.70
2018-11-11T16:23:07.311Z,16.23
2018-11-11T16:25:35.716Z,17.20
2018-11-11T16:28:03.956Z,19.93
2018-11-11T16:30:33.492Z,24.60
2018-11-11T16:33:01.993Z,33.13
2018-11-11T16:35:30.807Z,34.37
2018-11-11T16:37:59.667Z,30.87
2018-11-11T16:40:30.127Z,33.63
2018-11-11T16:42:58.536Z,30.97
2018-11-11T16:45:27.948Z,25.67
2018-11-11T16:47:56.341Z,18.30
2018-11-11T16:50:27.335Z,15.30
2018-11-11T16:52:56.738Z,17.33
2018-11-11T16:55:26.223Z,19.73
2018-11-11T16:57:54.388Z,23.17
2018-11-11T17:00:24.499Z,19.53
2018-11-11T17:02:53.063Z,18.40
2018-11-11T17:05:25.416Z,18.33
2018-11-11T17:07:54.017Z,24.53
2018-11-11T17:10:24.519Z,23.80
2018-11-11T17:12:53.679Z,23.93
2018-11-11T17:15:23.440Z,23.50
2018-11-11T17:17:51.717Z,18.27
2018-11-11T17:20:20.984Z,15.70
2018-11-11T17:22:50.217Z,16.80
2018-11-11T17:25:19.232Z,14.17
2018-11-11T17:27:47.738Z,16.23
2018-11-11T17:30:18.952Z,15.00
2018-11-11T17:32:48.240Z,15.60
2018-11-11T17:35:16.635Z,12.63
2018-11-11T17:37:44.896Z,14.50
2018-11-11T17:40:15.038Z,12.60
2018-11-11T17:42:44.395Z,13.80
2018-11-11T17:45:13.170Z,14.37
2018-11-11T17:47:41.833Z,12.07
2018-11-11T17:50:12.115Z,14.13
2018-11-11T17:52:40.649Z,12.77
2018-11-11T17:55:09.608Z,11.97
2018-11-11T17:57:37.784Z,11.80
2018-11-11T18:00:07.012Z,12.63
2018-11-11T18:02:35.214Z,10.57
2018-11-11T18:05:03.673Z,10.27
2018-11-11T18:07:31.888Z,11.87
2018-11-11T18:10:00.152Z,11.27
2018-11-11T18:12:28.369Z,11.53
2018-11-11T18:14:56.640Z,10.03
2018-11-11T18:17:24.923Z,11.17
2018-11-11T18:19:53.164Z,11.83
2018-11-11T18:22:21.380Z,12.60
2018-11-11T18:24:49.645Z,9.63
2018-11-11T18:27:17.958Z,11.33
2018-11-11T18:29:46.150Z,10.50
2018-11-11T18:32:14.353Z,10.53
2018-11-11T18:34:42.633Z,10.10
2018-11-11T18:37:10.870Z,9.77
2018-11-11T18:39:39.090Z,11.50
2018-11-11T18:42:07.315Z,12.73
2018-11-11T18:44:35.632Z,14.27
2018-11-11T18:47:03.907Z,13.47
2018-11-11T18:49:32.145Z,12.67
2018-11-11T18:52:00.351Z,11.83
2018-11-11T18:54:28.583Z,14.23
2018-11-11T18:56:56.791Z,13.83
2018-11-11T18:59:25.056Z,12.27
2018-11-11T19:01:53.267Z,12.67
2018-11-11T19:04:21.511Z,17.37
2018-11-11T19:06:49.732Z,12.67
2018-11-11T19:09:18.014Z,12.23
2018-11-11T19:11:46.257Z,13.30
2018-11-11T19:14:14.478Z,13.20
2018-11-11T19:16:42.785Z,11.67
2018-11-11T19:19:11.063Z,11.43
2018-11-11T19:21:39.507Z,14.83
2018-11-11T19:24:07.717Z,16.57
2018-11-11T19:26:35.950Z,13.43
2018-11-11T19:29:04.162Z,13.97
2018-11-11T19:31:32.402Z,12.87
2018-11-11T19:34:00.600Z,16.10
2018-11-11T19:36:28.815Z,14.37
2018-11-11T19:38:57.025Z,15.10
2018-11-11T19:41:25.365Z,13.53
2018-11-11T19:43:53.544Z,15.50
2018-11-11T19:46:21.751Z,12.93
2018-11-11T19:48:50.314Z,14.47
2018-11-11T19:51:18.535Z,15.53
2018-11-11T19:53:46.749Z,13.70
2018-11-11T19:56:15.201Z,15.30
2018-11-11T19:58:43.425Z,14.60
2018-11-11T20:01:11.651Z,14.67
2018-11-11T20:03:39.865Z,17.80
2018-11-11T20:06:08.101Z,16.63
2018-11-11T20:08:36.345Z,14.30
2018-11-11T20:11:04.856Z,13.50
2018-11-11T20:13:33.066Z,13.80
2018-11-11T20:16:01.289Z,14.90
2018-11-11T20:18:29.522Z,16.93
2018-11-11T20:20:57.747Z,15.50
2018-11-11T20:23:25.971Z,15.93
2018-11-11T20:25:54.241Z,13.27
2018-11-11T20:28:22.492Z,16.57
2018-11-11T20:30:50.732Z,15.23
2018-11-11T20:33:18.949Z,13.90
2018-11-11T20:35:47.172Z,16.17
2018-11-11T20:38:15.389Z,14.50
2018-11-11T20:40:43.603Z,13.03
2018-11-11T20:43:11.886Z,16.60
2018-11-11T20:45:40.137Z,16.13
2018-11-11T20:48:08.344Z,17.57
2018-11-11T20:50:36.567Z,14.43
2018-11-11T20:53:05.907Z,17.17
2018-11-11T20:55:34.235Z,14.70
2018-11-11T20:58:02.717Z,16.20
2018-11-11T21:00:34.352Z,18.27
2018-11-11T21:03:02.560Z,14.97
2018-11-11T21:05:30.968Z,16.27
2018-11-11T21:07:59.251Z,16.60
2018-11-11T21:10:28.420Z,17.23
2018-11-11T21:12:56.910Z,18.00
2018-11-11T21:15:26.369Z,15.00
2018-11-11T21:17:54.623Z,15.83
2018-11-11T21:20:24.328Z,16.17
2018-11-11T21:22:52.575Z,15.83
2018-11-11T21:25:20.856Z,16.60
2018-11-11T21:27:49.996Z,18.23
2018-11-11T21:30:20.326Z,17.00
2018-11-11T21:32:48.726Z,16.30
2018-11-11T21:35:16.934Z,17.43
2018-11-11T21:37:45.322Z,15.37
2018-11-11T21:40:16.469Z,16.80
2018-11-11T21:42:45.601Z,17.63
2018-11-11T21:45:15.121Z,17.80
2018-11-11T21:47:43.766Z,19.17
2018-11-11T21:50:27.914Z,17.03
2018-11-11T21:53:02.105Z,16.47
2018-11-11T21:55:30.248Z,17.10
2018-11-11T21:57:58.522Z,17.93
2018-11-11T22:00:26.745Z,17.43
2018-11-11T22:02:55.004Z,15.33
2018-11-11T22:05:23.214Z,16.17
2018-11-11T22:07:51.461Z,15.53
2018-11-11T22:10:19.670Z,17.17
2018-11-11T22:12:47.895Z,18.20
2018-11-11T22:15:16.116Z,16.23
2018-11-11T22:17:44.343Z,16.83
2018-11-11T22:20:12.547Z,17.20
2018-11-11T22:22:41.215Z,16.33
2018-11-11T22:25:09.431Z,14.47
2018-11-11T22:27:37.712Z,18.37
2018-11-11T22:30:08.336Z,16.60
2018-11-11T22:32:36.599Z,18.70
2018-11-11T22:35:06.022Z,15.80
2018-11-11T22:37:34.277Z,15.77
2018-11-11T22:40:03.036Z,16.37
2018-11-11T22:42:31.358Z,17.50
2018-11-11T22:44:59.545Z,17.20
2018-11-11T22:47:27.797Z,14.90
2018-11-11T22:49:56.020Z,17.30
2018-11-11T22:52:24.310Z,15.93
2018-11-11T22:54:52.486Z,16.40
2018-11-11T22:57:20.717Z,18.33
2018-11-11T22:59:48.924Z,16.57
2018-11-11T23:02:17.255Z,16.27
2018-11-11T23:04:45.504Z,16.73
2018-11-11T23:07:13.745Z,18.83
2018-11-11T23:09:41.963Z,16.67
2018-11-11T23:12:10.201Z,18.07
2018-11-11T23:14:38.435Z,16.67
2018-11-11T23:17:06.655Z,16.30
2018-11-11T23:19:34.865Z,17.33
2018-11-11T23:22:03.109Z,17.63
2018-11-11T23:24:31.319Z,18.37
2018-11-11T23:26:59.576Z,17.97
2018-11-11T23:29:27.827Z,17.40
2018-11-11T23:31:56.047Z,16.80
2018-11-11T23:34:24.269Z,18.67
2018-11-11T23:36:52.500Z,17.03
2018-11-11T23:39:20.743Z,16.97
2018-11-11T23:41:48.955Z,18.63
2018-11-11T23:44:17.189Z,19.33
2018-11-11T23:46:45.421Z,17.50
2018-11-11T23:49:14.379Z,18.17
2018-11-11T23:51:42.644Z,19.73
2018-11-11T23:54:10.896Z,17.97
2018-11-11T23:56:39.142Z,17.67
2018-11-11T23:59:07.365Z,18.63
